createdAt,value
2022-11-18T00:00:21.143Z,4.50
2022-11-18T00:04:23.054Z,4.50
2022-11-18T00:08:26.572Z,4.50
2022-11-18T00:12:47.000Z,4.50
2022-11-18T00:17:03.442Z,4.50
2022-11-18T00:21:10.745Z,4.50
2022-11-18T00:25:12.790Z,4.40
2022-11-18T00:29:15.462Z,4.40
2022-11-18T00:33:17.790Z,4.60
2022-11-18T00:37:19.825Z,4.40
2022-11-18T00:41:21.707Z,4.40
2022-11-18T00:45:24.053Z,4.40
2022-11-18T00:49:26.144Z,4.40
2022-11-18T00:53:28.185Z,4.40
2022-11-18T00:57:30.148Z,4.40
2022-11-18T01:01:32.335Z,4.40
2022-11-18T01:05:34.425Z,6.70
2022-11-18T01:09:36.385Z,4.40
2022-11-18T01:13:38.358Z,4.40
2022-11-18T01:17:40.333Z,4.40
2022-11-18T01:21:42.285Z,4.40
2022-11-18T01:25:45.676Z,4.70
2022-11-18T01:29:47.710Z,4.50
2022-11-18T01:33:49.843Z,4.50
2022-11-18T01:37:51.715Z,4.50
2022-11-18T01:41:53.785Z,4.50
2022-11-18T01:45:55.762Z,4.50
2022-11-18T01:50:00.130Z,4.50
2022-11-18T01:54:25.485Z,4.50
2022-11-18T01:58:55.993Z,4.50
2022-11-18T02:02:59.442Z,4.50
2022-11-18T02:07:02.853Z,4.50
2022-11-18T02:11:05.770Z,4.60
2022-11-18T02:15:08.425Z,4.60
2022-11-18T02:19:22.587Z,4.50
2022-11-18T02:23:50.991Z,4.50
2022-11-18T02:28:05.161Z,4.50
2022-11-18T02:32:47.049Z,4.50
2022-11-18T02:36:59.465Z,4.60
2022-11-18T02:41:27.786Z,4.50
2022-11-18T02:45:31.846Z,4.60
2022-11-18T02:49:39.735Z,4.60
2022-11-18T02:53:43.525Z,4.60
2022-11-18T02:57:46.388Z,4.60
2022-11-18T03:01:48.630Z,4.70
2022-11-18T03:05:54.623Z,4.70
2022-11-18T03:09:58.566Z,4.70
2022-11-18T03:14:03.362Z,4.70
2022-11-18T03:18:28.226Z,4.80
2022-11-18T03:22:37.431Z,4.70
2022-11-18T03:26:44.021Z,4.70
2022-11-18T03:31:14.770Z,4.70
2022-11-18T03:35:22.321Z,4.50
2022-11-18T03:39:26.780Z,4.50
2022-11-18T03:43:36.594Z,4.50
2022-11-18T03:47:42.837Z,4.50
2022-11-18T03:51:53.941Z,4.50
2022-11-18T03:56:07.090Z,4.40
2022-11-18T04:00:11.283Z,4.50
2022-11-18T04:04:13.697Z,4.50
2022-11-18T04:08:24.632Z,5.10
2022-11-18T04:12:29.817Z,4.50
2022-11-18T04:16:38.058Z,4.50
2022-11-18T04:20:40.425Z,4.40
2022-11-18T04:24:42.494Z,4.40
2022-11-18T04:28:44.501Z,4.40
2022-11-18T04:32:46.732Z,4.40
2022-11-18T04:36:48.677Z,4.40
2022-11-18T04:40:50.687Z,4.40
2022-11-18T04:44:52.651Z,4.40
2022-11-18T04:48:54.688Z,4.40
2022-11-18T04:52:56.831Z,4.40
2022-11-18T04:56:58.753Z,4.30
2022-11-18T05:01:00.788Z,4.40
2022-11-18T05:05:03.292Z,4.30
2022-11-18T05:09:05.514Z,4.30
2022-11-18T05:13:07.535Z,4.30
2022-11-18T05:17:10.187Z,4.30
2022-11-18T05:21:12.252Z,4.30
2022-11-18T05:25:14.249Z,4.30
2022-11-18T05:29:18.210Z,4.30
2022-11-18T05:33:20.337Z,4.30
2022-11-18T05:37:22.353Z,4.30
2022-11-18T05:41:42.838Z,4.30
2022-11-18T05:45:44.828Z,4.30
2022-11-18T05:49:46.822Z,4.30
2022-11-18T05:53:50.599Z,4.30
2022-11-18T05:57:52.676Z,4.30
2022-11-18T06:01:57.561Z,4.30
2022-11-18T06:06:02.618Z,4.30
2022-11-18T06:10:06.174Z,4.30
2022-11-18T06:14:25.345Z,4.20
2022-11-18T06:18:31.423Z,4.30
2022-11-18T06:22:35.152Z,4.30
2022-11-18T06:26:38.394Z,4.30
2022-11-18T06:30:40.718Z,4.20
2022-11-18T06:34:42.715Z,4.30
2022-11-18T06:38:44.779Z,4.30
2022-11-18T06:43:05.529Z,4.30
2022-11-18T06:47:07.483Z,4.30
2022-11-18T06:51:09.518Z,4.30
2022-11-18T06:55:11.485Z,4.50
2022-11-18T06:59:13.785Z,4.30
2022-11-18T07:03:15.745Z,4.30
2022-11-18T07:07:17.768Z,4.30
2022-11-18T07:11:22.935Z,4.40
2022-11-18T07:15:24.926Z,4.40
2022-11-18T07:19:30.202Z,4.40
2022-11-18T07:23:36.623Z,4.50
2022-11-18T07:27:38.448Z,4.50
2022-11-18T07:31:40.964Z,4.60
2022-11-18T07:35:43.155Z,5.40
2022-11-18T07:39:45.042Z,4.50
2022-11-18T07:43:48.235Z,4.50
2022-11-18T07:47:50.422Z,4.50
2022-11-18T07:51:52.802Z,4.50
2022-11-18T07:55:54.870Z,4.50
2022-11-18T07:59:56.835Z,4.50
2022-11-18T08:04:05.674Z,4.50
2022-11-18T08:08:07.684Z,4.50
2022-11-18T08:12:09.696Z,4.50
2022-11-18T08:16:23.562Z,4.50
2022-11-18T08:20:27.314Z,6.40
2022-11-18T08:24:29.542Z,4.50
2022-11-18T08:28:31.918Z,4.50
2022-11-18T08:32:33.970Z,4.50
2022-11-18T08:36:37.854Z,4.50
2022-11-18T08:40:44.340Z,4.40
2022-11-18T08:44:46.908Z,4.50
2022-11-18T08:48:49.148Z,4.50
2022-11-18T08:52:50.987Z,4.60
2022-11-18T08:56:52.953Z,4.60
2022-11-18T09:00:55.244Z,4.60
2022-11-18T09:04:57.218Z,4.60
2022-11-18T09:09:03.471Z,4.60
2022-11-18T09:13:33.728Z,4.50
2022-11-18T09:17:30.322Z,4.60
2022-11-18T09:21:34.619Z,4.80
2022-11-18T09:25:40.090Z,4.70
2022-11-18T09:29:42.075Z,4.80
2022-11-18T09:33:44.462Z,4.90
2022-11-18T09:37:46.444Z,5.10
2022-11-18T09:42:00.661Z,5.30
2022-11-18T09:46:21.586Z,5.30
2022-11-18T09:54:46.229Z,5.40
2022-11-18T09:58:48.565Z,5.50
2022-11-18T10:03:06.429Z,5.90
2022-11-18T10:07:19.965Z,5.60
2022-11-18T10:11:25.125Z,5.50
2022-11-18T10:15:39.762Z,5.50
2022-11-18T10:19:53.163Z,5.50
2022-11-18T10:24:17.922Z,5.50
2022-11-18T10:28:24.767Z,6.50
2022-11-18T10:32:27.054Z,5.60
2022-11-18T10:36:38.001Z,5.80
2022-11-18T10:41:01.502Z,6.00
2022-11-18T10:45:21.877Z,5.90
2022-11-18T10:49:23.840Z,5.80
2022-11-18T10:53:36.032Z,5.80
2022-11-18T10:57:43.562Z,5.80
2022-11-18T11:02:18.381Z,5.80
2022-11-18T11:06:26.513Z,5.70
2022-11-18T11:10:28.673Z,5.70
2022-11-18T11:14:38.008Z,5.70
2022-11-18T11:18:42.775Z,5.70
2022-11-18T11:22:45.809Z,5.70
2022-11-18T11:31:28.275Z,5.70
2022-11-18T11:36:08.192Z,5.70
2022-11-18T11:40:29.385Z,5.70
2022-11-18T11:44:55.461Z,5.70
2022-11-18T11:49:00.166Z,5.80
2022-11-18T11:53:14.952Z,5.90
2022-11-18T11:57:39.616Z,5.90
2022-11-18T12:01:58.767Z,5.80
2022-11-18T12:06:00.774Z,5.80
2022-11-18T12:10:18.077Z,5.80
2022-11-18T12:14:39.693Z,5.80
2022-11-18T12:18:41.999Z,5.70
2022-11-18T12:23:09.077Z,5.70
2022-11-18T12:27:11.125Z,5.70
2022-11-18T12:31:16.045Z,5.60
2022-11-18T12:35:30.484Z,5.60
2022-11-18T12:39:48.350Z,5.60
2022-11-18T12:43:50.945Z,5.70
2022-11-18T12:47:52.853Z,5.70
2022-11-18T12:52:00.177Z,5.80
2022-11-18T12:56:24.405Z,5.80
2022-11-18T13:00:26.547Z,5.80
2022-11-18T13:04:28.525Z,5.70
2022-11-18T13:08:30.707Z,5.70
2022-11-18T13:12:33.070Z,5.70
2022-11-18T13:17:05.485Z,5.60
2022-11-18T13:21:28.955Z,5.60
2022-11-18T13:25:30.948Z,5.50
2022-11-18T13:29:38.025Z,5.60
2022-11-18T13:33:40.377Z,5.50
2022-11-18T13:37:54.733Z,5.50
